createdAt,value
2017-11-14T00:01:59.991Z,99.84
2017-11-14T00:04:27.516Z,99.62
2017-11-14T00:06:55.028Z,99.61
2017-11-14T00:09:22.695Z,99.59
2017-11-14T00:11:50.228Z,99.61
2017-11-14T00:14:17.739Z,99.40
2017-11-14T00:16:45.326Z,99.49
2017-11-14T00:19:12.857Z,99.37
2017-11-14T00:21:40.889Z,99.37
2017-11-14T00:24:08.410Z,99.66
2017-11-14T00:26:35.925Z,99.63
2017-11-14T00:29:03.503Z,99.32
2017-11-14T00:31:31.018Z,99.57
2017-11-14T00:33:58.542Z,99.32
2017-11-14T00:36:26.529Z,99.48
2017-11-14T00:38:54.046Z,99.53
2017-11-14T00:41:21.567Z,99.45
2017-11-14T00:43:49.114Z,99.47
2017-11-14T00:46:16.779Z,99.64
2017-11-14T00:48:44.317Z,99.90
2017-11-14T00:51:11.842Z,99.66
2017-11-14T00:53:39.392Z,99.68
2017-11-14T00:56:06.918Z,99.59
2017-11-14T00:58:34.463Z,99.97
2017-11-14T01:01:01.991Z,99.96
2017-11-14T01:03:29.650Z,99.96
2017-11-14T01:05:57.178Z,99.96
2017-11-14T01:08:24.704Z,100.00
2017-11-14T01:10:52.408Z,99.44
2017-11-14T01:13:19.941Z,100.00
2017-11-14T01:15:47.473Z,100.00
2017-11-14T01:18:15.380Z,100.00
2017-11-14T01:20:42.902Z,100.00
2017-11-14T01:23:10.429Z,100.00
2017-11-14T01:25:37.976Z,99.99
2017-11-14T01:28:05.494Z,99.79
2017-11-14T01:30:33.368Z,99.95
2017-11-14T01:33:00.902Z,99.75
2017-11-14T01:35:28.408Z,99.67
2017-11-14T01:37:56.059Z,99.94
2017-11-14T01:40:23.583Z,100.00
2017-11-14T01:42:51.106Z,99.89
2017-11-14T01:45:18.657Z,99.97
2017-11-14T01:47:46.202Z,99.85
2017-11-14T01:50:13.853Z,99.91
2017-11-14T01:52:41.382Z,99.89
2017-11-14T01:55:08.916Z,99.79
2017-11-14T01:57:36.575Z,99.66
2017-11-14T02:00:04.109Z,99.72
2017-11-14T02:02:31.633Z,99.55
2017-11-14T02:04:59.278Z,99.63
2017-11-14T02:07:26.825Z,99.68
2017-11-14T02:09:54.395Z,99.61
2017-11-14T02:12:22.021Z,99.70
2017-11-14T02:14:49.583Z,99.67
2017-11-14T02:17:17.098Z,99.63
2017-11-14T02:19:44.655Z,99.68
2017-11-14T02:22:12.205Z,99.68
2017-11-14T02:24:39.795Z,99.70
2017-11-14T02:27:11.083Z,99.58
2017-11-14T02:29:38.625Z,99.39
2017-11-14T02:32:06.650Z,99.34
2017-11-14T02:34:34.161Z,99.41
2017-11-14T02:37:01.711Z,99.09
2017-11-14T02:39:29.334Z,98.91
2017-11-14T02:41:56.893Z,98.96
2017-11-14T02:44:24.435Z,99.19
2017-11-14T02:46:52.020Z,99.38
2017-11-14T02:49:19.573Z,99.39
2017-11-14T02:51:47.126Z,99.34
2017-11-14T02:54:14.881Z,99.40
2017-11-14T02:56:42.393Z,99.12
2017-11-14T02:59:09.905Z,98.93
2017-11-14T03:01:37.474Z,99.06
2017-11-14T03:04:05.027Z,99.03
2017-11-14T03:06:32.543Z,99.04
2017-11-14T03:09:00.123Z,98.78
2017-11-14T03:11:27.661Z,98.92
2017-11-14T03:13:55.197Z,98.95
2017-11-14T03:16:23.183Z,98.86
2017-11-14T03:18:50.707Z,98.58
2017-11-14T03:21:18.234Z,98.63
2017-11-14T03:23:45.816Z,98.74
2017-11-14T03:26:13.344Z,98.74
2017-11-14T03:28:40.899Z,98.80
2017-11-14T03:31:08.479Z,98.86
2017-11-14T03:33:36.002Z,98.72
2017-11-14T03:36:03.582Z,98.61
2017-11-14T03:38:31.146Z,98.50
2017-11-14T03:40:58.682Z,98.54
2017-11-14T03:43:26.254Z,98.48
2017-11-14T03:45:53.777Z,98.34
2017-11-14T03:48:21.299Z,98.21
2017-11-14T03:50:48.850Z,98.05
2017-11-14T03:53:16.381Z,98.07
2017-11-14T03:55:44.030Z,98.28
2017-11-14T03:58:11.571Z,98.21
2017-11-14T04:00:39.110Z,98.37
2017-11-14T04:03:07.060Z,98.27
2017-11-14T04:05:34.590Z,98.43
2017-11-14T04:08:02.118Z,98.39
2017-11-14T04:10:30.098Z,98.46
2017-11-14T04:12:57.618Z,98.54
2017-11-14T04:15:25.129Z,98.57
2017-11-14T04:17:53.008Z,98.59
2017-11-14T04:20:20.534Z,98.37
2017-11-14T04:22:48.049Z,98.64
2017-11-14T04:25:15.700Z,98.70
2017-11-14T04:27:43.217Z,98.87
2017-11-14T04:30:10.733Z,99.12
2017-11-14T04:32:38.450Z,98.83
2017-11-14T04:35:06.015Z,98.87
2017-11-14T04:37:33.538Z,98.71
2017-11-14T04:40:01.128Z,98.95
2017-11-14T04:42:28.651Z,98.38
2017-11-14T04:44:56.186Z,98.31
2017-11-14T04:47:24.092Z,98.48
2017-11-14T04:49:51.618Z,98.69
2017-11-14T04:52:19.143Z,98.01
2017-11-14T04:54:46.789Z,98.72
2017-11-14T04:57:14.474Z,98.10
2017-11-14T04:59:42.012Z,98.19
2017-11-14T05:02:09.943Z,97.89
2017-11-14T05:04:37.470Z,97.72
2017-11-14T05:07:05.003Z,97.81
2017-11-14T05:09:32.630Z,97.59
2017-11-14T05:12:00.161Z,97.56
2017-11-14T05:14:27.678Z,97.21
2017-11-14T05:16:55.243Z,97.31
2017-11-14T05:19:22.761Z,97.85
2017-11-14T05:21:50.277Z,97.12
2017-11-14T05:24:17.838Z,97.06
2017-11-14T05:26:45.357Z,96.81
2017-11-14T05:29:12.997Z,97.26
2017-11-14T05:31:40.513Z,97.09
2017-11-14T05:34:08.034Z,96.08
2017-11-14T05:36:35.769Z,96.74
2017-11-14T05:39:03.311Z,96.72
2017-11-14T05:41:30.824Z,96.67
2017-11-14T05:43:58.587Z,96.71
2017-11-14T05:46:26.102Z,96.74
2017-11-14T05:48:54.083Z,96.49
2017-11-14T05:51:21.746Z,97.12
2017-11-14T05:53:49.840Z,97.06
2017-11-14T05:56:17.383Z,96.48
2017-11-14T05:58:45.463Z,96.82
2017-11-14T06:01:13.064Z,96.63
2017-11-14T06:03:40.916Z,96.71
2017-11-14T06:06:08.493Z,96.40
2017-11-14T06:08:36.266Z,96.05
2017-11-14T06:11:03.773Z,96.73
2017-11-14T06:13:31.298Z,95.61
2017-11-14T06:15:58.974Z,96.11
2017-11-14T06:18:26.497Z,95.78
2017-11-14T06:20:54.023Z,95.19
2017-11-14T06:23:22.051Z,95.90
2017-11-14T06:25:49.619Z,95.92
2017-11-14T06:28:17.143Z,95.56
2017-11-14T06:30:44.957Z,95.38
2017-11-14T06:33:12.480Z,96.13
2017-11-14T06:35:39.995Z,96.01
2017-11-14T06:38:08.624Z,95.65
2017-11-14T06:40:36.221Z,96.00
2017-11-14T06:43:03.775Z,95.21
2017-11-14T06:45:31.417Z,95.44
2017-11-14T06:47:58.966Z,95.47
2017-11-14T06:50:26.490Z,95.92
2017-11-14T06:52:54.025Z,95.40
2017-11-14T06:55:21.790Z,95.26
2017-11-14T06:57:49.307Z,95.12
2017-11-14T07:00:16.880Z,95.20
2017-11-14T07:02:44.422Z,95.26
2017-11-14T07:05:11.992Z,94.64
2017-11-14T07:07:39.926Z,95.00
2017-11-14T07:10:07.468Z,95.35
2017-11-14T07:12:34.997Z,95.55
2017-11-14T07:15:02.519Z,95.63
2017-11-14T07:17:30.441Z,95.96
2017-11-14T07:19:58.825Z,95.96
2017-11-14T07:22:26.380Z,95.76
2017-11-14T07:24:53.967Z,95.50
2017-11-14T07:27:21.482Z,95.46
2017-11-14T07:29:49.020Z,95.79
2017-11-14T07:32:16.582Z,95.17
2017-11-14T07:34:44.112Z,95.49
2017-11-14T07:37:11.691Z,95.33
2017-11-14T07:39:39.226Z,95.13
2017-11-14T07:42:06.745Z,95.10
2017-11-14T07:44:34.479Z,94.98
2017-11-14T07:47:02.002Z,95.31
2017-11-14T07:49:29.536Z,95.10
2017-11-14T07:51:57.085Z,95.41
2017-11-14T07:54:24.611Z,95.11
2017-11-14T07:56:52.561Z,94.48
2017-11-14T07:59:20.082Z,94.44
2017-11-14T08:01:47.775Z,94.30
2017-11-14T08:04:15.470Z,94.22
2017-11-14T08:06:43.007Z,94.01
2017-11-14T08:09:10.537Z,94.06
2017-11-14T08:11:38.501Z,93.26
2017-11-14T08:14:06.038Z,93.81
2017-11-14T08:16:33.565Z,93.48
2017-11-14T08:19:01.327Z,93.61
2017-11-14T08:21:28.847Z,93.45
2017-11-14T08:23:56.367Z,92.87
2017-11-14T08:26:23.935Z,92.72
2017-11-14T08:28:51.456Z,92.07
2017-11-14T08:31:19.008Z,91.24
2017-11-14T08:33:46.645Z,91.41
2017-11-14T08:36:14.158Z,91.56
2017-11-14T08:38:41.660Z,91.17
2017-11-14T08:41:09.250Z,90.62
2017-11-14T08:43:36.817Z,91.30
2017-11-14T08:46:04.336Z,90.82
2017-11-14T08:48:31.917Z,90.63
2017-11-14T08:50:59.913Z,90.34
2017-11-14T08:53:28.097Z,90.50
2017-11-14T08:55:55.704Z,90.57
2017-11-14T08:58:23.222Z,90.16
2017-11-14T09:00:50.749Z,89.54
2017-11-14T09:03:18.320Z,88.84
2017-11-14T09:05:45.841Z,89.04
2017-11-14T09:08:13.361Z,88.65
2017-11-14T09:10:41.022Z,88.54
2017-11-14T09:13:08.933Z,87.95
2017-11-14T09:15:37.448Z,87.58
2017-11-14T09:18:05.186Z,88.40
2017-11-14T09:20:32.721Z,87.83
2017-11-14T09:23:00.255Z,88.24
2017-11-14T09:25:27.804Z,86.87
2017-11-14T09:27:55.326Z,86.51
2017-11-14T09:30:22.890Z,86.76
2017-11-14T09:32:50.426Z,86.75
2017-11-14T09:35:18.134Z,86.54
2017-11-14T09:37:45.670Z,86.32
2017-11-14T09:40:13.212Z,87.63
2017-11-14T09:42:40.783Z,86.46
2017-11-14T09:45:08.316Z,87.17
2017-11-14T09:47:35.885Z,86.27
2017-11-14T09:50:03.664Z,85.85
2017-11-14T09:52:31.662Z,86.96
2017-11-14T09:54:59.197Z,87.37
2017-11-14T09:57:27.269Z,87.43
2017-11-14T09:59:54.992Z,87.44
2017-11-14T10:02:22.649Z,88.07
2017-11-14T10:04:50.326Z,85.98
2017-11-14T10:07:18.011Z,86.37
2017-11-14T10:09:45.550Z,85.61
2017-11-14T10:12:13.596Z,85.82
2017-11-14T10:14:41.662Z,85.31
2017-11-14T10:17:09.215Z,85.92
2017-11-14T10:19:36.741Z,84.78
2017-11-14T10:22:04.936Z,85.02
2017-11-14T10:24:32.491Z,84.91
2017-11-14T10:27:00.033Z,85.60
2017-11-14T10:29:28.364Z,84.69
2017-11-14T10:31:55.946Z,85.01
2017-11-14T10:34:23.970Z,85.03
2017-11-14T10:36:51.865Z,85.46
2017-11-14T10:39:19.425Z,83.69
2017-11-14T10:41:46.959Z,85.98
2017-11-14T10:44:14.553Z,85.84
2017-11-14T10:46:42.078Z,85.44
2017-11-14T10:49:09.628Z,84.66
2017-11-14T10:51:37.398Z,84.36
2017-11-14T10:54:04.942Z,85.54
2017-11-14T10:56:32.846Z,85.34
2017-11-14T10:59:00.526Z,86.45
2017-11-14T11:01:28.067Z,83.60
2017-11-14T11:03:56.333Z,82.79
2017-11-14T11:06:23.977Z,83.36
2017-11-14T11:08:51.519Z,81.71
2017-11-14T11:11:19.062Z,82.08
2017-11-14T11:13:46.777Z,83.40
2017-11-14T11:16:14.343Z,82.56
2017-11-14T11:18:41.882Z,83.69
2017-11-14T11:21:09.471Z,81.62
2017-11-14T11:23:37.003Z,82.47
2017-11-14T11:26:05.609Z,82.16
2017-11-14T11:28:33.549Z,82.94
2017-11-14T11:31:01.550Z,83.36
2017-11-14T11:33:30.179Z,83.77
2017-11-14T11:35:57.772Z,83.01
2017-11-14T11:38:25.298Z,82.07
2017-11-14T11:40:52.953Z,81.83
2017-11-14T11:43:20.626Z,81.64
2017-11-14T11:45:48.197Z,80.78
2017-11-14T11:48:15.743Z,81.03
2017-11-14T11:50:43.338Z,81.94
2017-11-14T11:53:10.870Z,80.73
2017-11-14T11:55:38.404Z,80.74
2017-11-14T11:58:06.388Z,80.53
2017-11-14T12:00:33.949Z,81.20
2017-11-14T12:03:02.014Z,80.81
2017-11-14T12:05:29.578Z,81.86
2017-11-14T12:07:57.113Z,80.71
2017-11-14T12:10:26.218Z,81.42
2017-11-14T12:12:53.834Z,82.24
2017-11-14T12:15:21.368Z,81.56
2017-11-14T12:17:49.109Z,81.97
2017-11-14T12:20:16.647Z,81.94
2017-11-14T12:22:45.121Z,81.03
2017-11-14T12:25:13.062Z,82.22
2017-11-14T12:27:41.041Z,81.66
2017-11-14T12:30:10.115Z,82.20
2017-11-14T12:32:38.308Z,81.74
2017-11-14T12:35:06.396Z,82.35
2017-11-14T12:37:33.935Z,82.60
2017-11-14T12:40:01.482Z,82.54
2017-11-14T12:42:29.460Z,82.72
2017-11-14T12:44:56.986Z,82.38
2017-11-14T12:47:25.646Z,83.45
2017-11-14T12:49:53.392Z,83.75
2017-11-14T12:52:20.904Z,83.37
2017-11-14T12:54:48.429Z,82.86
2017-11-14T12:57:16.430Z,83.09
2017-11-14T12:59:44.578Z,82.64
2017-11-14T13:02:12.140Z,84.63
2017-11-14T13:04:40.419Z,84.07
2017-11-14T13:07:08.363Z,84.69
2017-11-14T13:09:35.966Z,85.92
2017-11-14T13:12:03.914Z,84.93
2017-11-14T13:14:32.059Z,86.15
2017-11-14T13:16:59.641Z,86.00
2017-11-14T13:19:27.981Z,85.89
2017-11-14T13:21:55.545Z,85.73
2017-11-14T13:24:23.101Z,85.77
2017-11-14T13:26:51.429Z,86.77
2017-11-14T13:29:19.486Z,87.05
2017-11-14T13:31:47.035Z,87.01
2017-11-14T13:34:14.565Z,87.27
2017-11-14T13:36:42.102Z,88.40
2017-11-14T13:39:10.163Z,87.40
2017-11-14T13:41:37.971Z,88.62
2017-11-14T13:44:05.988Z,87.78
2017-11-14T13:46:33.597Z,87.61
2017-11-14T13:49:02.011Z,87.51
2017-11-14T13:51:29.526Z,86.59
2017-11-14T13:53:57.037Z,87.85
2017-11-14T13:56:24.942Z,87.22
2017-11-14T13:58:52.466Z,86.96
2017-11-14T14:01:20.027Z,87.66
2017-11-14T14:03:47.606Z,88.01
2017-11-14T14:06:15.131Z,88.46
2017-11-14T14:08:43.354Z,90.15
2017-11-14T14:11:11.498Z,90.89
2017-11-14T14:13:39.389Z,91.68
2017-11-14T14:16:07.308Z,91.90
2017-11-14T14:18:35.912Z,90.41
2017-11-14T14:21:03.464Z,91.43
2017-11-14T14:23:30.986Z,90.91
2017-11-14T14:25:59.595Z,91.44
2017-11-14T14:28:27.202Z,91.12
2017-11-14T14:30:54.729Z,93.70
2017-11-14T14:33:22.303Z,94.40
2017-11-14T14:35:49.821Z,94.86
2017-11-14T14:38:17.336Z,95.00
2017-11-14T14:40:45.004Z,95.43
2017-11-14T14:43:12.547Z,95.82
2017-11-14T14:45:40.083Z,95.80
2017-11-14T14:48:08.894Z,96.13
2017-11-14T14:50:36.461Z,96.49
2017-11-14T14:53:03.994Z,95.61
2017-11-14T14:55:31.573Z,95.40
2017-11-14T14:57:59.915Z,96.51
2017-11-14T15:00:27.436Z,96.46
2017-11-14T15:02:55.005Z,96.04
2017-11-14T15:05:22.533Z,96.85
2017-11-14T15:07:50.067Z,96.57
2017-11-14T15:10:18.064Z,96.89
2017-11-14T15:12:45.594Z,97.34
2017-11-14T15:15:13.214Z,97.17
2017-11-14T15:17:41.202Z,97.19
2017-11-14T15:20:08.729Z,96.38
2017-11-14T15:22:36.254Z,97.65
2017-11-14T15:25:04.746Z,97.28
2017-11-14T15:27:32.914Z,97.03
2017-11-14T15:30:01.539Z,96.83
2017-11-14T15:32:29.166Z,97.58
2017-11-14T15:34:56.689Z,97.45
2017-11-14T15:37:24.215Z,97.39
2017-11-14T15:39:51.752Z,98.09
2017-11-14T15:42:19.293Z,97.32
2017-11-14T15:44:47.185Z,97.15
2017-11-14T15:47:14.701Z,96.89
2017-11-14T15:49:42.218Z,96.51
2017-11-14T15:52:10.149Z,97.32
2017-11-14T15:54:38.410Z,97.41
2017-11-14T15:57:07.121Z,96.54
2017-11-14T15:59:34.672Z,97.42
2017-11-14T16:02:02.196Z,98.13
2017-11-14T16:04:30.110Z,97.87
2017-11-14T16:06:57.629Z,97.37
2017-11-14T16:09:25.190Z,97.56
2017-11-14T16:11:52.965Z,97.98
2017-11-14T16:14:20.485Z,97.32
2017-11-14T16:16:48.016Z,98.08
2017-11-14T16:19:15.643Z,97.97
2017-11-14T16:21:43.205Z,97.74
2017-11-14T16:24:10.739Z,98.33
2017-11-14T16:26:38.326Z,98.19
2017-11-14T16:29:05.871Z,98.45
2017-11-14T16:31:33.426Z,98.69
2017-11-14T16:34:00.955Z,98.35
2017-11-14T16:36:28.557Z,98.73
2017-11-14T16:38:56.100Z,98.54
2017-11-14T16:41:23.634Z,98.95
2017-11-14T16:43:51.681Z,98.60
2017-11-14T16:46:19.215Z,98.03
2017-11-14T16:48:46.745Z,98.90
2017-11-14T16:51:14.712Z,99.18
2017-11-14T16:53:42.251Z,98.97
2017-11-14T16:56:09.830Z,99.42
2017-11-14T16:58:37.511Z,99.62
2017-11-14T17:01:05.059Z,99.61
2017-11-14T17:03:32.594Z,99.26
2017-11-14T17:06:00.142Z,99.26
2017-11-14T17:08:27.694Z,98.67
2017-11-14T17:10:55.321Z,99.05
2017-11-14T17:13:22.987Z,98.20
2017-11-14T17:15:50.642Z,98.96
2017-11-14T17:18:18.243Z,99.11
2017-11-14T17:20:45.789Z,98.66
2017-11-14T17:23:13.328Z,99.28
2017-11-14T17:25:41.041Z,99.50
2017-11-14T17:28:08.566Z,99.20
2017-11-14T17:30:36.105Z,99.24
2017-11-14T17:33:03.875Z,99.22
2017-11-14T17:35:31.423Z,99.52
2017-11-14T17:37:58.946Z,99.36
2017-11-14T17:40:26.589Z,99.11
2017-11-14T17:42:54.579Z,99.95
2017-11-14T17:45:22.096Z,99.87
2017-11-14T17:47:49.623Z,99.30
2017-11-14T17:50:17.396Z,99.22
2017-11-14T17:52:44.913Z,99.25
2017-11-14T17:55:12.446Z,99.59
2017-11-14T17:57:40.007Z,99.75
2017-11-14T18:00:07.533Z,99.67
2017-11-14T18:02:35.100Z,99.73
2017-11-14T18:05:02.629Z,99.31
2017-11-14T18:07:30.150Z,99.43
2017-11-14T18:09:57.704Z,99.05
2017-11-14T18:12:25.290Z,99.64
2017-11-14T18:14:52.810Z,99.07
2017-11-14T18:17:20.338Z,98.44
2017-11-14T18:19:48.056Z,98.96
2017-11-14T18:22:15.578Z,99.41
2017-11-14T18:24:43.101Z,99.47
2017-11-14T18:27:10.783Z,99.19
2017-11-14T18:29:38.306Z,99.14
2017-11-14T18:32:05.845Z,98.99
2017-11-14T18:34:33.588Z,99.09
2017-11-14T18:37:01.245Z,99.28
2017-11-14T18:39:28.782Z,98.92
2017-11-14T18:41:56.537Z,98.56
2017-11-14T18:44:24.104Z,98.47
2017-11-14T18:46:51.653Z,98.48
2017-11-14T18:49:19.520Z,98.39
2017-11-14T18:51:47.037Z,98.06
2017-11-14T18:54:14.579Z,98.48
2017-11-14T18:56:42.283Z,97.92
2017-11-14T18:59:09.822Z,98.33
2017-11-14T19:01:37.350Z,98.47
2017-11-14T19:04:04.893Z,98.52
2017-11-14T19:06:32.441Z,98.93
2017-11-14T19:09:00.147Z,98.69
2017-11-14T19:11:27.675Z,99.35
2017-11-14T19:13:55.211Z,99.27
2017-11-14T19:16:23.270Z,99.33
2017-11-14T19:18:50.801Z,99.40
2017-11-14T19:21:18.389Z,99.06
2017-11-14T19:23:46.286Z,98.94
2017-11-14T19:26:13.824Z,99.53
2017-11-14T19:28:41.350Z,99.46
2017-11-14T19:31:09.109Z,99.38
2017-11-14T19:33:36.635Z,99.06
2017-11-14T19:36:04.161Z,99.34
2017-11-14T19:38:31.712Z,99.33
2017-11-14T19:40:59.236Z,99.93
2017-11-14T19:43:27.002Z,99.30
2017-11-14T19:45:54.539Z,98.95
2017-11-14T19:48:22.059Z,98.99
2017-11-14T19:50:49.642Z,99.10
2017-11-14T19:53:17.174Z,98.93
2017-11-14T19:55:44.698Z,99.14
2017-11-14T19:58:12.420Z,99.11
2017-11-14T20:00:39.942Z,98.92
2017-11-14T20:03:07.465Z,98.89
2017-11-14T20:05:35.232Z,99.25
2017-11-14T20:08:02.745Z,99.04
2017-11-14T20:10:30.273Z,99.15
2017-11-14T20:12:57.893Z,98.95
2017-11-14T20:15:25.404Z,98.62
2017-11-14T20:17:52.924Z,98.73
2017-11-14T20:20:20.532Z,98.89
2017-11-14T20:22:48.195Z,99.41
2017-11-14T20:25:15.744Z,98.95
2017-11-14T20:27:43.294Z,98.30
2017-11-14T20:30:11.272Z,98.78
2017-11-14T20:32:38.798Z,98.69
2017-11-14T20:35:06.354Z,98.62
2017-11-14T20:37:33.942Z,99.50
2017-11-14T20:40:01.460Z,98.72
2017-11-14T20:42:29.034Z,98.65
2017-11-14T20:44:56.716Z,98.28
2017-11-14T20:47:24.242Z,98.42
2017-11-14T20:49:51.760Z,98.93
2017-11-14T20:52:19.347Z,98.94
2017-11-14T20:54:46.880Z,99.01
2017-11-14T20:57:14.409Z,99.22
2017-11-14T20:59:42.073Z,99.10
2017-11-14T21:02:09.603Z,98.80
2017-11-14T21:04:37.162Z,99.67
2017-11-14T21:07:04.795Z,99.71
2017-11-14T21:09:32.328Z,99.55
2017-11-14T21:11:59.854Z,99.37
2017-11-14T21:14:27.598Z,99.50
2017-11-14T21:16:55.130Z,99.28
2017-11-14T21:19:22.640Z,99.44
2017-11-14T21:21:50.285Z,99.54
2017-11-14T21:24:17.845Z,99.32
2017-11-14T21:26:45.374Z,98.99
2017-11-14T21:29:13.447Z,98.95
2017-11-14T21:31:40.981Z,99.11
2017-11-14T21:34:08.502Z,99.22
2017-11-14T21:36:36.063Z,99.17
2017-11-14T21:39:03.690Z,99.25
2017-11-14T21:41:31.220Z,99.37
2017-11-14T21:43:58.760Z,98.98
2017-11-14T21:46:26.344Z,99.12
2017-11-14T21:48:53.931Z,99.37
2017-11-14T21:51:21.474Z,99.23
2017-11-14T21:53:49.197Z,99.86
2017-11-14T21:56:16.716Z,99.84
2017-11-14T21:58:44.237Z,99.61
2017-11-14T22:01:11.836Z,99.26
2017-11-14T22:03:39.373Z,99.64
2017-11-14T22:06:06.906Z,99.32
2017-11-14T22:08:34.513Z,99.39
2017-11-14T22:11:02.047Z,99.36
2017-11-14T22:13:29.569Z,98.64
2017-11-14T22:15:57.110Z,99.25
2017-11-14T22:18:24.644Z,99.12
2017-11-14T22:20:52.608Z,99.12
2017-11-14T22:23:20.138Z,99.36
2017-11-14T22:25:47.682Z,98.96
2017-11-14T22:28:15.260Z,99.38
2017-11-14T22:30:42.780Z,99.55
2017-11-14T22:33:10.306Z,99.55
2017-11-14T22:35:37.889Z,99.57
2017-11-14T22:38:05.419Z,99.00
2017-11-14T22:40:32.952Z,99.01
2017-11-14T22:43:00.512Z,99.51
2017-11-14T22:45:28.054Z,99.34
2017-11-14T22:47:55.924Z,99.25
2017-11-14T22:50:23.447Z,99.42
2017-11-14T22:52:51.015Z,99.57
2017-11-14T22:55:18.675Z,99.07
2017-11-14T22:57:46.203Z,98.98
2017-11-14T23:00:25.661Z,99.01
2017-11-14T23:02:53.193Z,99.02
2017-11-14T23:05:20.724Z,99.43
2017-11-14T23:07:48.333Z,99.34
2017-11-14T23:10:15.886Z,98.51
2017-11-14T23:12:44.205Z,98.93
2017-11-14T23:15:11.906Z,99.19
2017-11-14T23:17:39.461Z,98.76
2017-11-14T23:20:07.017Z,98.97
2017-11-14T23:22:34.925Z,99.11
2017-11-14T23:25:02.467Z,98.59
2017-11-14T23:27:29.997Z,98.72
2017-11-14T23:29:57.588Z,98.85
2017-11-14T23:32:25.135Z,98.62
2017-11-14T23:34:52.678Z,99.22
2017-11-14T23:37:20.756Z,99.29
2017-11-14T23:39:48.283Z,99.38
2017-11-14T23:42:15.849Z,99.64
2017-11-14T23:44:43.450Z,99.03
2017-11-14T23:47:11.004Z,99.60
2017-11-14T23:49:38.928Z,99.12
2017-11-14T23:52:06.492Z,98.53
2017-11-14T23:54:34.022Z,99.09
2017-11-14T23:57:01.614Z,98.61
2017-11-14T23:59:29.159Z,98.36
